createdAt,value
2022-11-10T00:00:22.659Z,36.27
2022-11-10T00:02:50.703Z,36.97
2022-11-10T00:05:19.119Z,36.37
2022-11-10T00:07:47.122Z,35.87
2022-11-10T00:10:16.483Z,40.30
2022-11-10T00:12:45.865Z,36.93
2022-11-10T00:15:31.433Z,36.73
2022-11-10T00:18:01.878Z,37.67
2022-11-10T00:20:29.849Z,37.33
2022-11-10T00:22:57.903Z,37.77
2022-11-10T00:25:26.230Z,38.83
2022-11-10T00:27:55.569Z,36.10
2022-11-10T00:30:23.549Z,37.07
2022-11-10T00:32:51.573Z,36.70
2022-11-10T00:35:20.043Z,38.63
2022-11-10T00:37:50.598Z,37.53
2022-11-10T00:40:19.237Z,35.90
2022-11-10T00:42:47.405Z,35.90
2022-11-10T00:45:16.871Z,37.67
2022-11-10T00:47:46.733Z,36.57
2022-11-10T00:50:14.807Z,34.80
2022-11-10T00:52:42.785Z,36.23
2022-11-10T00:55:10.756Z,35.40
2022-11-10T00:57:38.760Z,37.07
2022-11-10T01:00:07.876Z,35.30
2022-11-10T01:02:37.228Z,35.03
2022-11-10T01:05:05.501Z,35.83
2022-11-10T01:07:33.669Z,34.70
2022-11-10T01:10:01.653Z,35.57
2022-11-10T01:12:30.742Z,34.80
2022-11-10T01:14:58.794Z,35.30
2022-11-10T01:17:26.838Z,36.67
2022-11-10T01:19:56.166Z,34.93
2022-11-10T01:22:24.160Z,36.73
2022-11-10T01:24:52.125Z,36.53
2022-11-10T01:27:20.137Z,37.57
2022-11-10T01:29:48.167Z,35.53
2022-11-10T01:32:16.181Z,35.87
2022-11-10T01:34:44.179Z,34.43
2022-11-10T01:37:14.228Z,36.90
2022-11-10T01:39:42.258Z,34.20
2022-11-10T01:42:10.252Z,38.23
2022-11-10T01:44:43.349Z,35.90
2022-11-10T01:47:11.313Z,36.97
2022-11-10T01:49:39.371Z,35.80
2022-11-10T01:52:10.934Z,35.90
2022-11-10T01:54:43.881Z,36.13
2022-11-10T01:57:13.933Z,36.23
2022-11-10T01:59:45.763Z,35.20
2022-11-10T02:02:20.903Z,35.97
2022-11-10T02:04:51.219Z,35.80
2022-11-10T02:07:20.393Z,34.73
2022-11-10T02:09:50.060Z,34.67
2022-11-10T02:12:36.878Z,36.57
2022-11-10T02:15:06.253Z,35.17
2022-11-10T02:17:34.672Z,35.63
2022-11-10T02:20:05.021Z,34.17
2022-11-10T02:22:34.997Z,34.70
2022-11-10T02:25:03.151Z,34.10
2022-11-10T02:27:31.772Z,33.30
2022-11-10T02:30:00.172Z,34.90
2022-11-10T02:32:28.727Z,36.00
2022-11-10T02:34:56.775Z,35.93
2022-11-10T02:37:24.772Z,37.23
2022-11-10T02:39:54.183Z,34.40
2022-11-10T02:42:22.357Z,33.87
2022-11-10T02:44:50.949Z,33.57
2022-11-10T02:47:19.023Z,35.03
2022-11-10T02:49:47.014Z,35.97
2022-11-10T02:52:15.006Z,35.17
2022-11-10T02:54:42.999Z,34.30
2022-11-10T02:57:12.350Z,35.27
2022-11-10T02:59:40.338Z,33.87
2022-11-10T03:02:08.300Z,35.73
2022-11-10T03:04:36.320Z,33.33
2022-11-10T03:07:04.395Z,35.23
2022-11-10T03:09:32.440Z,36.50
2022-11-10T03:12:00.433Z,34.43
2022-11-10T03:14:29.803Z,36.70
2022-11-10T03:16:57.783Z,32.90
2022-11-10T03:19:25.783Z,33.13
2022-11-10T03:21:53.819Z,34.90
2022-11-10T03:24:21.849Z,33.70
2022-11-10T03:26:49.847Z,34.33
2022-11-10T03:29:17.836Z,33.43
2022-11-10T03:31:47.223Z,35.93
2022-11-10T03:34:15.251Z,33.60
2022-11-10T03:36:43.293Z,34.20
2022-11-10T03:39:11.380Z,33.60
2022-11-10T03:41:39.373Z,33.97
2022-11-10T03:44:07.907Z,33.70
2022-11-10T03:46:35.927Z,36.43
2022-11-10T03:49:05.510Z,33.87
2022-11-10T03:51:33.516Z,33.37
2022-11-10T03:54:01.519Z,35.20
2022-11-10T03:56:29.558Z,33.90
2022-11-10T03:58:57.585Z,33.73
2022-11-10T04:01:25.877Z,33.17
2022-11-10T04:03:53.941Z,33.40
2022-11-10T04:06:41.234Z,34.03
2022-11-10T04:09:10.098Z,34.37
2022-11-10T04:11:55.594Z,34.83
2022-11-10T04:14:41.131Z,36.27
2022-11-10T04:17:09.662Z,34.37
2022-11-10T04:19:37.653Z,35.53
2022-11-10T04:22:06.992Z,35.43
2022-11-10T04:24:34.961Z,36.10
2022-11-10T04:27:02.944Z,38.53
2022-11-10T04:29:30.970Z,35.97
2022-11-10T04:31:58.997Z,33.20
2022-11-10T04:34:26.982Z,35.93
2022-11-10T04:36:55.009Z,36.27
2022-11-10T04:39:24.337Z,37.27
2022-11-10T04:41:52.328Z,35.70
2022-11-10T04:44:20.271Z,35.43
2022-11-10T04:46:48.251Z,36.13
2022-11-10T04:49:16.227Z,37.27
2022-11-10T04:51:44.239Z,37.67
2022-11-10T04:54:12.529Z,38.23
2022-11-10T04:56:41.888Z,36.90
2022-11-10T04:59:09.917Z,36.63
2022-11-10T05:01:37.951Z,38.77
2022-11-10T05:04:06.633Z,36.53
2022-11-10T05:06:34.657Z,39.77
2022-11-10T05:09:02.698Z,37.07
2022-11-10T05:11:30.677Z,39.30
2022-11-10T05:14:00.044Z,38.83
2022-11-10T05:16:28.079Z,38.33
2022-11-10T05:18:58.235Z,39.13
2022-11-10T05:21:26.255Z,40.47
2022-11-10T05:23:54.246Z,41.60
2022-11-10T05:26:22.249Z,40.30
2022-11-10T05:28:50.235Z,40.17
2022-11-10T05:31:19.615Z,40.93
2022-11-10T05:33:47.594Z,42.37
2022-11-10T05:36:15.572Z,40.20
2022-11-10T05:38:44.032Z,43.00
2022-11-10T05:41:12.850Z,44.00
2022-11-10T05:43:41.115Z,42.23
2022-11-10T05:46:09.109Z,40.73
2022-11-10T05:48:38.459Z,44.23
2022-11-10T05:51:06.941Z,43.17
2022-11-10T05:53:35.096Z,42.93
2022-11-10T05:56:03.081Z,43.27
2022-11-10T05:58:31.098Z,42.43
2022-11-10T06:00:59.328Z,41.40
2022-11-10T06:03:27.612Z,40.20
2022-11-10T06:05:57.761Z,41.17
2022-11-10T06:08:25.831Z,42.37
2022-11-10T06:10:54.626Z,40.63
2022-11-10T06:13:22.914Z,40.93
2022-11-10T06:15:51.190Z,41.57
2022-11-10T06:18:19.563Z,41.90
2022-11-10T06:20:48.008Z,42.50
2022-11-10T06:23:17.472Z,41.43
2022-11-10T06:25:46.034Z,39.90
2022-11-10T06:28:14.918Z,41.97
2022-11-10T06:30:43.203Z,40.47
2022-11-10T06:33:11.165Z,42.87
2022-11-10T06:35:39.190Z,41.23
2022-11-10T06:38:08.854Z,44.03
2022-11-10T06:40:38.321Z,41.07
2022-11-10T06:43:06.304Z,39.93
2022-11-10T06:45:34.288Z,42.87
2022-11-10T06:48:03.388Z,40.87
2022-11-10T06:50:31.881Z,42.77
2022-11-10T06:53:01.048Z,40.97
2022-11-10T06:55:29.478Z,41.53
2022-11-10T06:57:59.566Z,41.40
2022-11-10T07:00:28.644Z,41.23
2022-11-10T07:03:01.118Z,42.93
2022-11-10T07:05:29.204Z,42.43
2022-11-10T07:07:57.267Z,41.53
2022-11-10T07:10:25.251Z,41.17
2022-11-10T07:13:00.011Z,41.27
2022-11-10T07:15:28.495Z,41.17
2022-11-10T07:17:56.636Z,42.07
2022-11-10T07:20:26.134Z,41.83
2022-11-10T07:22:59.007Z,42.73
2022-11-10T07:25:27.263Z,40.83
2022-11-10T07:27:55.827Z,42.80
2022-11-10T07:30:26.647Z,40.33
2022-11-10T07:33:02.297Z,40.97
2022-11-10T07:35:31.042Z,42.17
2022-11-10T07:38:02.266Z,42.30
2022-11-10T07:40:30.469Z,41.70
2022-11-10T07:42:58.540Z,42.50
2022-11-10T07:45:28.353Z,41.53
2022-11-10T07:48:00.052Z,42.57
2022-11-10T07:50:28.141Z,43.70
2022-11-10T07:53:04.179Z,40.07
2022-11-10T07:55:32.197Z,42.70
2022-11-10T07:58:00.766Z,41.67
2022-11-10T08:00:30.287Z,41.73
2022-11-10T08:03:02.937Z,40.77
2022-11-10T08:05:31.145Z,42.00
2022-11-10T08:08:00.171Z,41.30
2022-11-10T08:10:28.646Z,41.93
2022-11-10T08:12:57.141Z,40.37
2022-11-10T08:15:25.763Z,43.40
2022-11-10T08:18:00.004Z,41.27
2022-11-10T08:20:28.204Z,41.77
2022-11-10T08:23:00.556Z,40.40
2022-11-10T08:25:34.412Z,41.63
2022-11-10T08:28:05.287Z,40.03
2022-11-10T08:30:33.703Z,40.40
2022-11-10T08:33:04.956Z,38.97
2022-11-10T08:35:36.304Z,40.00
2022-11-10T08:38:09.745Z,37.30
2022-11-10T08:40:38.366Z,37.23
2022-11-10T08:43:08.409Z,40.53
2022-11-10T08:45:37.031Z,40.07
2022-11-10T08:48:08.624Z,39.37
2022-11-10T08:50:36.639Z,37.23
2022-11-10T08:53:06.133Z,38.97
2022-11-10T08:55:34.371Z,36.83
2022-11-10T08:58:04.031Z,36.77
2022-11-10T09:00:33.733Z,35.93
2022-11-10T09:03:07.696Z,36.97
2022-11-10T09:05:36.724Z,36.43
2022-11-10T09:08:05.521Z,37.63
2022-11-10T09:10:34.210Z,38.90
2022-11-10T09:13:02.573Z,39.43
2022-11-10T09:15:31.354Z,44.13
2022-11-10T09:17:59.794Z,36.60
2022-11-10T09:20:29.846Z,36.27
2022-11-10T09:22:58.572Z,34.43
2022-11-10T09:25:26.584Z,35.03
2022-11-10T09:27:54.568Z,36.27
2022-11-10T09:30:22.710Z,33.23
2022-11-10T09:32:55.268Z,34.33
2022-11-10T09:35:23.725Z,33.17
2022-11-10T09:37:53.209Z,30.23
2022-11-10T09:40:25.016Z,32.20
2022-11-10T09:42:57.427Z,32.77
2022-11-10T09:45:28.841Z,29.33
2022-11-10T09:48:02.672Z,33.13
2022-11-10T09:50:41.061Z,29.13
2022-11-10T09:53:16.373Z,29.20
2022-11-10T09:55:47.985Z,29.67
2022-11-10T09:58:16.677Z,31.63
2022-11-10T10:00:51.001Z,32.47
2022-11-10T10:03:25.536Z,31.27
2022-11-10T10:06:02.456Z,29.73
2022-11-10T10:27:00.041Z,27.47
2022-11-10T10:29:37.467Z,27.07
2022-11-10T10:32:06.863Z,28.87
2022-11-10T10:34:35.507Z,25.58
2022-11-10T10:37:03.592Z,26.20
2022-11-10T10:39:37.258Z,26.47
2022-11-10T10:42:17.137Z,26.07
2022-11-10T10:45:13.948Z,25.63
2022-11-10T10:47:42.443Z,23.07
2022-11-10T10:50:23.070Z,22.53
2022-11-10T10:53:10.393Z,23.03
2022-11-10T10:55:39.436Z,21.77
2022-11-10T10:58:25.954Z,23.53
2022-11-10T11:00:57.511Z,23.80
2022-11-10T11:03:29.673Z,22.20
2022-11-10T11:06:07.030Z,22.38
2022-11-10T11:08:36.052Z,23.63
2022-11-10T11:11:11.953Z,22.23
2022-11-10T11:13:41.316Z,23.90
2022-11-10T11:16:12.450Z,22.27
2022-11-10T11:18:41.697Z,21.13
2022-11-10T11:21:15.273Z,19.55
2022-11-10T11:24:16.641Z,22.08
2022-11-10T11:26:53.266Z,20.03
2022-11-10T11:30:03.481Z,20.07
2022-11-10T11:32:57.671Z,19.70
2022-11-10T11:35:31.996Z,17.98
2022-11-10T11:38:11.581Z,19.45
2022-11-10T11:40:50.127Z,19.88
2022-11-10T11:43:41.771Z,17.03
2022-11-10T11:46:19.427Z,18.17
2022-11-10T11:48:55.922Z,19.13
2022-11-10T11:51:29.152Z,18.33
2022-11-10T11:54:28.834Z,16.90
2022-11-10T11:57:06.004Z,17.17
2022-11-10T12:00:01.122Z,16.43
2022-11-10T12:02:53.481Z,18.55
2022-11-10T12:05:36.655Z,16.10
2022-11-10T12:08:15.979Z,17.90
2022-11-10T12:10:51.524Z,15.63
2022-11-10T12:13:33.470Z,14.70
2022-11-10T12:16:07.286Z,15.43
2022-11-10T12:18:38.221Z,14.38
2022-11-10T12:21:20.147Z,14.15
2022-11-10T12:23:59.790Z,13.95
2022-11-10T12:26:36.365Z,14.40
2022-11-10T12:29:07.852Z,13.73
2022-11-10T12:31:38.199Z,14.25
2022-11-10T12:34:14.141Z,13.50
2022-11-10T12:36:42.474Z,12.82
2022-11-10T12:39:19.812Z,12.70
2022-11-10T12:41:54.638Z,12.68
2022-11-10T12:44:27.913Z,12.90
2022-11-10T12:46:59.021Z,12.20
2022-11-10T12:49:33.573Z,11.82
2022-11-10T12:52:11.443Z,13.07
2022-11-10T12:54:41.714Z,12.80
2022-11-10T12:57:15.451Z,11.00
2022-11-10T12:59:53.585Z,10.63
2022-11-10T13:02:29.514Z,11.40
2022-11-10T13:05:41.025Z,10.73
2022-11-10T13:08:23.348Z,10.60
2022-11-10T13:10:55.528Z,11.63
2022-11-10T13:13:24.925Z,10.65
2022-11-10T13:15:57.707Z,11.15
2022-11-10T13:18:58.910Z,11.18
2022-11-10T13:22:10.027Z,9.85
2022-11-10T13:24:39.653Z,11.30
2022-11-10T13:27:13.278Z,10.45
2022-11-10T13:29:58.179Z,10.23
2022-11-10T13:32:31.538Z,9.52
2022-11-10T13:35:32.698Z,10.75
2022-11-10T13:38:02.130Z,9.57
2022-11-10T13:40:34.985Z,8.90
2022-11-10T13:43:23.270Z,9.38
2022-11-10T13:46:03.236Z,9.05
2022-11-10T13:48:55.066Z,8.80
2022-11-10T13:51:32.799Z,8.98
2022-11-10T13:54:17.398Z,8.95
2022-11-10T13:56:58.372Z,8.68
2022-11-10T13:59:28.205Z,8.27
2022-11-10T14:02:49.701Z,9.45
2022-11-10T14:06:00.594Z,9.68
2022-11-10T14:08:34.304Z,8.57
2022-11-10T14:11:06.077Z,9.18
2022-11-10T14:13:41.498Z,8.82
2022-11-10T14:16:19.431Z,8.50
2022-11-10T14:19:01.093Z,10.98
2022-11-10T14:21:34.841Z,9.35
2022-11-10T14:24:12.377Z,9.52
2022-11-10T14:26:45.436Z,8.80
2022-11-10T14:29:31.372Z,9.32
2022-11-10T14:32:02.032Z,9.77
2022-11-10T14:34:31.266Z,10.15
2022-11-10T14:37:02.525Z,10.07
2022-11-10T14:39:33.406Z,12.07
2022-11-10T14:42:05.582Z,11.35
2022-11-10T14:44:35.558Z,12.95
2022-11-10T14:47:31.862Z,11.70
2022-11-10T14:50:08.467Z,11.32
2022-11-10T14:52:40.590Z,11.20
2022-11-10T14:55:15.324Z,10.67
2022-11-10T14:57:49.646Z,11.18
2022-11-10T15:00:25.143Z,11.13
2022-11-10T15:02:55.457Z,12.37
2022-11-10T15:05:24.621Z,11.27
2022-11-10T15:07:54.972Z,11.03
2022-11-10T15:10:25.088Z,11.10
2022-11-10T15:13:06.738Z,11.97
2022-11-10T15:15:34.769Z,11.15
2022-11-10T15:18:02.750Z,11.77
2022-11-10T15:20:36.624Z,12.10
2022-11-10T15:23:07.585Z,11.50
2022-11-10T15:25:37.897Z,12.33
2022-11-10T15:28:19.964Z,11.93
2022-11-10T15:30:53.739Z,12.23
2022-11-10T15:33:27.302Z,11.90
2022-11-10T15:35:56.620Z,12.53
2022-11-10T15:38:31.481Z,12.97
2022-11-10T15:41:12.636Z,12.43
2022-11-10T15:43:42.283Z,12.27
2022-11-10T15:46:17.794Z,13.97
2022-11-10T15:48:48.756Z,14.23
2022-11-10T15:51:25.602Z,17.03
2022-11-10T15:53:54.514Z,17.60
2022-11-10T15:56:24.958Z,18.90
2022-11-10T15:58:59.208Z,16.77
2022-11-10T16:01:30.167Z,20.60
2022-11-10T16:03:58.251Z,20.10
2022-11-10T16:06:27.495Z,23.60
2022-11-10T16:08:55.722Z,22.47
2022-11-10T16:11:24.454Z,21.90
2022-11-10T16:13:55.665Z,17.47
2022-11-10T16:16:24.112Z,17.90
2022-11-10T16:18:52.577Z,15.53
2022-11-10T16:21:22.568Z,17.20
2022-11-10T16:23:50.587Z,17.83
2022-11-10T16:26:22.328Z,17.20
2022-11-10T16:28:51.167Z,17.20
2022-11-10T16:31:22.544Z,17.20
2022-11-10T16:33:51.728Z,18.30
2022-11-10T16:36:26.039Z,19.47
2022-11-10T16:38:54.803Z,19.37
2022-11-10T16:41:23.453Z,19.87
2022-11-10T16:43:51.746Z,19.03
2022-11-10T16:46:23.610Z,19.93
2022-11-10T16:48:53.755Z,20.77
2022-11-10T16:51:28.787Z,21.30
2022-11-10T16:53:56.965Z,21.03
2022-11-10T16:56:26.801Z,22.73
2022-11-10T16:58:54.977Z,21.70
2022-11-10T17:01:27.739Z,21.13
2022-11-10T17:03:58.382Z,22.40
2022-11-10T17:06:28.388Z,19.73
2022-11-10T17:09:00.446Z,20.00
2022-11-10T17:11:28.493Z,18.30
2022-11-10T17:13:56.497Z,16.93
2022-11-10T17:16:29.534Z,17.70
2022-11-10T17:18:58.832Z,17.63
2022-11-10T17:21:32.718Z,17.03
2022-11-10T17:24:01.742Z,16.20
2022-11-10T17:26:31.188Z,15.27
2022-11-10T17:28:59.401Z,16.60
2022-11-10T17:31:28.806Z,16.90
2022-11-10T17:33:56.802Z,18.47
2022-11-10T17:36:25.208Z,18.57
2022-11-10T17:38:53.606Z,17.40
2022-11-10T17:41:22.086Z,15.03
2022-11-10T17:43:50.107Z,17.17
2022-11-10T17:46:18.130Z,15.93
2022-11-10T17:48:48.081Z,17.17
2022-11-10T17:51:20.781Z,15.13
2022-11-10T17:53:50.566Z,17.10
2022-11-10T17:56:18.905Z,15.80
2022-11-10T17:58:46.902Z,16.37
2022-11-10T18:01:17.977Z,15.60
2022-11-10T18:03:47.876Z,15.33
2022-11-10T18:06:16.077Z,15.90
2022-11-10T18:08:44.849Z,16.93
2022-11-10T18:11:15.065Z,16.70
2022-11-10T18:13:44.375Z,17.60
2022-11-10T18:16:13.934Z,17.97
2022-11-10T18:18:42.199Z,16.20
2022-11-10T18:21:12.550Z,18.03
2022-11-10T18:23:40.587Z,17.70
2022-11-10T18:26:11.423Z,17.37
2022-11-10T18:28:39.898Z,16.90
2022-11-10T18:31:08.603Z,18.23
2022-11-10T18:33:36.916Z,19.43
2022-11-10T18:36:05.366Z,18.80
2022-11-10T18:38:35.900Z,19.57
2022-11-10T18:41:18.386Z,19.40
2022-11-10T18:43:46.602Z,20.03
2022-11-10T18:46:14.898Z,19.47
2022-11-10T18:48:43.634Z,20.60
2022-11-10T18:51:11.723Z,19.60
2022-11-10T18:53:41.179Z,19.90
2022-11-10T18:56:09.236Z,22.57
2022-11-10T18:58:37.341Z,23.27
2022-11-10T19:01:06.134Z,23.07
2022-11-10T19:03:35.338Z,22.33
2022-11-10T19:06:05.141Z,22.07
2022-11-10T19:08:33.195Z,22.43
2022-11-10T19:11:06.161Z,22.83
2022-11-10T19:13:34.182Z,21.67
2022-11-10T19:16:05.452Z,29.27
2022-11-10T19:18:33.457Z,23.00
2022-11-10T19:21:05.590Z,21.37
2022-11-10T19:23:33.662Z,21.60
2022-11-10T19:26:03.676Z,22.50
2022-11-10T19:28:31.906Z,22.77
2022-11-10T19:31:03.007Z,25.70
2022-11-10T19:33:31.889Z,25.00
2022-11-10T19:36:04.346Z,24.47
2022-11-10T19:38:32.911Z,21.63
2022-11-10T19:41:05.762Z,20.63
2022-11-10T19:43:34.102Z,20.33
2022-11-10T19:46:06.816Z,22.00
2022-11-10T19:48:35.528Z,20.83
2022-11-10T19:51:05.070Z,21.40
2022-11-10T19:53:33.305Z,20.43
2022-11-10T19:56:04.184Z,20.97
2022-11-10T19:58:32.243Z,20.57
2022-11-10T20:01:02.019Z,20.70
2022-11-10T20:03:30.639Z,22.13
2022-11-10T20:06:00.228Z,20.73
2022-11-10T20:08:28.593Z,21.63
2022-11-10T20:11:00.224Z,24.07
2022-11-10T20:13:30.306Z,21.97
2022-11-10T20:15:58.294Z,24.60
2022-11-10T20:18:26.326Z,21.70
2022-11-10T20:20:54.872Z,22.23
2022-11-10T20:23:23.787Z,22.40
2022-11-10T20:26:02.677Z,21.30
2022-11-10T20:28:32.115Z,21.43
2022-11-10T20:31:00.799Z,21.40
2022-11-10T20:33:31.371Z,22.53
2022-11-10T20:36:05.259Z,22.97
2022-11-10T20:38:33.597Z,23.83
2022-11-10T20:41:06.176Z,23.43
2022-11-10T20:43:36.637Z,23.27
2022-11-10T20:46:05.890Z,24.30
2022-11-10T20:48:35.085Z,24.53
2022-11-10T20:51:09.244Z,24.13
2022-11-10T20:53:37.367Z,25.57
2022-11-10T20:56:06.332Z,25.43
2022-11-10T20:58:35.898Z,24.53
2022-11-10T21:01:06.059Z,24.60
2022-11-10T21:03:34.801Z,24.70
2022-11-10T21:06:03.285Z,23.93
2022-11-10T21:08:32.098Z,24.70
2022-11-10T21:11:01.660Z,24.47
2022-11-10T21:13:28.881Z,25.97
2022-11-10T21:16:00.287Z,25.40
2022-11-10T21:18:30.256Z,24.97
2022-11-10T21:20:58.310Z,25.87
2022-11-10T21:23:26.423Z,27.50
2022-11-10T21:25:55.097Z,26.27
2022-11-10T21:28:23.322Z,27.63
2022-11-10T21:30:51.469Z,27.17
2022-11-10T21:33:21.156Z,26.47
2022-11-10T21:35:49.611Z,27.93
2022-11-10T21:38:17.628Z,27.10
2022-11-10T21:40:45.704Z,28.00
2022-11-10T21:43:13.720Z,30.03
2022-11-10T21:45:41.802Z,29.20
2022-11-10T21:48:10.333Z,27.83
2022-11-10T21:50:39.697Z,28.97
2022-11-10T21:53:08.167Z,29.23
2022-11-10T21:55:36.250Z,28.57
2022-11-10T21:58:04.367Z,28.97
2022-11-10T22:00:32.500Z,29.30
2022-11-10T22:03:00.901Z,28.83
2022-11-10T22:05:29.236Z,30.13
2022-11-10T22:07:58.601Z,29.43
2022-11-10T22:10:44.121Z,31.13
2022-11-10T22:13:34.097Z,32.10
2022-11-10T22:16:19.758Z,32.73
2022-11-10T22:18:48.056Z,32.57
2022-11-10T22:21:16.085Z,30.50
2022-11-10T22:24:03.168Z,31.63
2022-11-10T22:26:31.187Z,31.87
2022-11-10T22:28:59.178Z,32.23
2022-11-10T22:31:27.191Z,32.93
2022-11-10T22:33:55.208Z,32.50
2022-11-10T22:36:23.247Z,32.63
2022-11-10T22:38:52.621Z,35.23
2022-11-10T22:41:37.893Z,32.97
2022-11-10T22:44:06.452Z,32.87
2022-11-10T22:46:36.328Z,32.73
2022-11-10T22:49:07.996Z,32.63
2022-11-10T22:51:36.994Z,33.67
2022-11-10T22:54:10.050Z,32.17
2022-11-10T22:56:38.431Z,31.63
2022-11-10T22:59:06.637Z,32.10
2022-11-10T23:01:34.992Z,32.53
2022-11-10T23:04:03.289Z,33.53
2022-11-10T23:06:31.597Z,32.40
2022-11-10T23:09:00.336Z,33.33
2022-11-10T23:11:31.444Z,33.40
2022-11-10T23:13:59.714Z,32.97
2022-11-10T23:16:29.585Z,31.60
2022-11-10T23:18:58.688Z,32.00
2022-11-10T23:21:29.869Z,32.73
2022-11-10T23:23:57.916Z,33.43
2022-11-10T23:26:27.214Z,31.77
2022-11-10T23:28:57.030Z,33.30
2022-11-10T23:31:26.734Z,33.03
2022-11-10T23:33:57.569Z,33.43
2022-11-10T23:36:27.043Z,33.60
2022-11-10T23:38:56.010Z,34.70
2022-11-10T23:41:26.112Z,31.50
2022-11-10T23:43:54.668Z,34.43
2022-11-10T23:46:24.034Z,34.03
2022-11-10T23:48:52.087Z,32.67
2022-11-10T23:51:20.091Z,31.67
2022-11-10T23:53:48.097Z,32.57
2022-11-10T23:56:16.905Z,32.87
2022-11-10T23:58:44.892Z,31.77
